KBAD/BAD METAR and TAF weather

Enter ICAO airport designator
Station Type Date Time Source
KBAD METAR 2019/08/17 10:56 UTC NOAA

KBAD 171056Z AUTO 00000KT 10SM CLR 23/23 A2990 RMK AO2 SLP126 T02340234


Station Type Date Time Source
KBAD Decoded METAR 2019/08/17 10:56 UTC NOAA

Station name not available
Aug 17, 2019 - 06:56 AM EDT / 2019.08.17 1056 UTC
Wind: Calm:0
Visibility: 10 mile(s):0
Sky conditions: clear
Temperature: 74.1 F (23.4 C)
Dew Point: 74.1 F (23.4 C)
Relative Humidity: 100%
Pressure (altimeter): 29.9 in. Hg (1012 hPa)
ob: KBAD 171056Z AUTO 00000KT 10SM CLR 23/23 A2990 RMK AO2 SLP126 T02340234
cycle: 11

Station Type Date Time Source
KBAD TAF 2019/08/17 10:09 UTC NOAA

TAF COR KBAD 171000Z 1710/1816 17006KT 9999 SKC QNH2988INS
BECMG 1715/1716 19012KT 9999 SCT040 QNH2979INS
BECMG 1810/1811 17005KT 9999 BKN015 QNH2990INS TX37/1722Z TN23/1711Z

Example: see airport list